createdAt,value
2023-01-26T00:02:14.706Z,1.82
2023-01-26T00:04:45.590Z,1.80
2023-01-26T00:07:21.878Z,1.80
2023-01-26T00:09:56.408Z,1.79
2023-01-26T00:12:34.783Z,1.79
2023-01-26T00:15:12.970Z,1.80
2023-01-26T00:17:54.450Z,1.79
2023-01-26T00:21:39.825Z,1.78
2023-01-26T00:24:39.993Z,1.72
2023-01-26T00:27:13.308Z,1.71
2023-01-26T00:29:51.675Z,1.73
2023-01-26T00:32:24.172Z,1.74
2023-01-26T00:34:55.008Z,1.75
2023-01-26T00:37:32.986Z,1.73
2023-01-26T00:40:09.815Z,1.75
2023-01-26T00:42:43.497Z,1.74
2023-01-26T00:45:34.803Z,1.74
2023-01-26T00:48:11.758Z,1.70
2023-01-26T00:50:47.458Z,1.70
2023-01-26T00:53:20.751Z,1.69
2023-01-26T00:56:07.533Z,1.68
2023-01-26T00:58:42.152Z,1.67
2023-01-26T01:01:23.516Z,1.70
2023-01-26T01:04:08.181Z,1.78
2023-01-26T01:06:40.477Z,1.82
2023-01-26T01:09:22.000Z,1.80
2023-01-26T01:12:01.586Z,1.74
2023-01-26T01:14:40.431Z,1.70
2023-01-26T01:17:15.638Z,1.65
2023-01-26T01:19:53.948Z,1.63
2023-01-26T01:22:55.107Z,1.60
2023-01-26T01:25:46.886Z,1.57
2023-01-26T01:28:20.729Z,1.56
2023-01-26T01:30:59.985Z,1.58
2023-01-26T01:33:36.971Z,1.58
2023-01-26T01:36:17.127Z,1.57
2023-01-26T01:38:55.252Z,1.58
2023-01-26T01:41:44.789Z,1.58
2023-01-26T01:44:38.798Z,1.58
2023-01-26T01:47:26.012Z,1.62
2023-01-26T01:50:05.523Z,1.61
2023-01-26T01:52:53.610Z,1.62
2023-01-26T01:55:30.648Z,1.63
2023-01-26T01:58:17.841Z,1.61
2023-01-26T02:00:50.855Z,1.61
2023-01-26T02:03:34.071Z,1.61
2023-01-26T02:06:46.456Z,1.63
2023-01-26T02:09:37.263Z,1.63
2023-01-26T02:12:11.629Z,1.64
2023-01-26T02:14:45.514Z,1.67
2023-01-26T02:17:22.468Z,1.71
2023-01-26T02:20:13.750Z,1.69
2023-01-26T02:23:01.436Z,1.66
2023-01-26T02:25:41.800Z,1.66
2023-01-26T02:28:12.926Z,1.69
2023-01-26T02:30:46.933Z,1.71
2023-01-26T02:33:24.262Z,1.71
2023-01-26T02:36:07.733Z,1.73
2023-01-26T02:39:20.342Z,1.74
2023-01-26T02:42:17.380Z,1.69
2023-01-26T02:44:54.054Z,1.67
2023-01-26T02:47:45.602Z,1.64
2023-01-26T02:50:20.269Z,1.64
2023-01-26T02:52:52.010Z,1.65
2023-01-26T02:55:30.802Z,1.66
2023-01-26T02:58:05.434Z,1.65
2023-01-26T03:00:47.598Z,1.65
2023-01-26T03:03:44.539Z,1.63
2023-01-26T03:06:29.716Z,1.59
2023-01-26T03:09:06.563Z,1.56
2023-01-26T03:11:44.350Z,1.58
2023-01-26T03:14:19.279Z,1.60
2023-01-26T03:16:52.777Z,1.61
2023-01-26T03:19:42.149Z,1.62
2023-01-26T03:22:31.526Z,1.61
2023-01-26T03:25:21.235Z,1.58
2023-01-26T03:27:54.911Z,1.55
2023-01-26T03:30:34.312Z,1.53
2023-01-26T03:33:09.823Z,1.51
2023-01-26T03:35:54.327Z,1.48
2023-01-26T03:38:42.590Z,1.48
2023-01-26T03:41:47.792Z,1.48
2023-01-26T03:44:44.361Z,1.50
2023-01-26T03:47:33.244Z,1.49
2023-01-26T03:50:41.663Z,1.51
2023-01-26T03:53:39.597Z,1.48
2023-01-26T03:56:23.755Z,1.51
2023-01-26T03:59:26.962Z,1.52
2023-01-26T04:02:29.953Z,1.58
2023-01-26T04:05:23.994Z,1.66
2023-01-26T04:08:23.115Z,1.73
2023-01-26T04:11:15.500Z,1.77
2023-01-26T04:14:07.721Z,1.78
2023-01-26T04:17:05.252Z,1.73
2023-01-26T04:19:57.117Z,1.67
2023-01-26T04:22:45.651Z,1.62
2023-01-26T04:25:22.317Z,1.60
2023-01-26T04:27:58.408Z,1.63
2023-01-26T04:30:42.042Z,1.66
2023-01-26T04:33:17.590Z,1.66
2023-01-26T04:35:58.868Z,1.65
2023-01-26T04:38:40.315Z,1.63
2023-01-26T04:41:15.840Z,1.62
2023-01-26T04:43:57.945Z,1.64
2023-01-26T04:46:37.749Z,1.64
2023-01-26T04:49:19.025Z,1.65
2023-01-26T04:51:59.946Z,1.67
2023-01-26T04:54:47.473Z,1.71
2023-01-26T04:57:21.464Z,1.72
2023-01-26T05:00:05.383Z,1.72
2023-01-26T05:02:44.273Z,1.71
2023-01-26T05:05:19.035Z,1.69
2023-01-26T05:07:54.220Z,1.68
2023-01-26T05:10:29.401Z,1.73
2023-01-26T05:13:26.635Z,1.71
2023-01-26T05:16:24.308Z,1.70
2023-01-26T05:19:52.521Z,1.71
2023-01-26T05:26:09.630Z,1.71
2023-01-26T05:32:19.500Z,1.67
2023-01-26T05:35:05.724Z,1.66
2023-01-26T05:37:51.214Z,1.66
2023-01-26T05:40:32.119Z,1.69
2023-01-26T05:43:34.073Z,1.75
2023-01-26T05:46:53.004Z,1.77
2023-01-26T05:49:52.280Z,1.76
2023-01-26T05:52:59.708Z,1.79
2023-01-26T05:55:52.991Z,1.85
2023-01-26T05:58:41.384Z,1.87
2023-01-26T06:01:21.807Z,1.84
2023-01-26T06:04:12.847Z,1.81
2023-01-26T06:07:13.817Z,1.77
2023-01-26T06:10:05.478Z,1.74
2023-01-26T06:13:24.872Z,1.69
2023-01-26T06:16:22.261Z,1.66
2023-01-26T06:19:08.566Z,1.66
2023-01-26T06:21:57.705Z,1.65
2023-01-26T06:24:47.458Z,1.65
2023-01-26T06:27:31.527Z,1.65
2023-01-26T06:30:22.862Z,1.65
2023-01-26T06:33:12.490Z,1.66
2023-01-26T06:36:05.250Z,1.65
2023-01-26T06:38:56.691Z,1.62
2023-01-26T06:41:34.545Z,1.60
2023-01-26T06:44:23.960Z,1.58
2023-01-26T06:47:11.575Z,1.54
2023-01-26T06:49:56.011Z,1.51
2023-01-26T06:52:52.301Z,1.51
2023-01-26T06:55:54.038Z,1.49
2023-01-26T06:58:40.876Z,1.45
2023-01-26T07:01:22.659Z,1.44
2023-01-26T07:04:10.056Z,1.40
2023-01-26T07:06:59.518Z,1.40
2023-01-26T07:09:32.490Z,1.43
2023-01-26T07:12:19.826Z,1.47
2023-01-26T07:14:58.686Z,1.46
2023-01-26T07:17:53.272Z,1.47
2023-01-26T07:20:49.498Z,1.48
2023-01-26T07:23:35.118Z,1.51
2023-01-26T07:26:35.179Z,1.57
2023-01-26T07:29:30.871Z,1.63
2023-01-26T07:32:06.965Z,1.67
2023-01-26T07:34:49.984Z,1.75
2023-01-26T07:37:20.615Z,1.84
2023-01-26T07:39:59.224Z,1.91
2023-01-26T07:42:42.489Z,1.96
2023-01-26T07:45:56.639Z,2.00
2023-01-26T07:48:33.668Z,2.06
2023-01-26T07:51:19.203Z,2.13
2023-01-26T07:54:12.777Z,2.19
2023-01-26T07:56:57.772Z,2.24
2023-01-26T07:59:40.495Z,2.26
2023-01-26T08:02:27.111Z,2.28
2023-01-26T08:05:12.124Z,2.29
2023-01-26T08:08:05.515Z,2.29
2023-01-26T08:10:46.491Z,2.25
2023-01-26T08:13:45.831Z,2.25
2023-01-26T08:16:22.033Z,2.31
2023-01-26T08:18:55.605Z,2.36
2023-01-26T08:21:37.976Z,2.40
2023-01-26T08:24:35.092Z,2.39
2023-01-26T08:27:16.133Z,2.38
2023-01-26T08:30:00.216Z,2.42
2023-01-26T08:32:31.096Z,2.50
2023-01-26T08:35:05.855Z,2.56
2023-01-26T08:37:45.982Z,2.62
2023-01-26T08:40:20.439Z,2.68
2023-01-26T08:43:04.803Z,2.74
2023-01-26T08:45:42.891Z,2.80
2023-01-26T08:48:24.347Z,2.84
2023-01-26T08:51:02.105Z,2.83
2023-01-26T08:53:37.708Z,2.80
2023-01-26T08:56:11.999Z,2.86
2023-01-26T08:58:56.663Z,2.90
2023-01-26T09:01:29.800Z,2.83
2023-01-26T09:04:07.669Z,2.74
2023-01-26T09:06:38.184Z,2.64
2023-01-26T09:09:13.424Z,2.65
2023-01-26T09:11:51.349Z,2.66
2023-01-26T09:14:28.943Z,2.75
2023-01-26T09:17:02.817Z,2.81
2023-01-26T09:19:43.078Z,2.76
2023-01-26T09:22:46.878Z,2.68
2023-01-26T09:25:30.227Z,2.68
2023-01-26T09:28:07.214Z,2.67
2023-01-26T09:30:39.428Z,2.63
2023-01-26T09:33:19.419Z,2.61
2023-01-26T09:35:53.797Z,2.61
2023-01-26T09:38:30.608Z,2.65
2023-01-26T09:41:41.655Z,2.67
2023-01-26T09:44:26.886Z,2.60
2023-01-26T09:47:12.798Z,2.57
2023-01-26T09:50:16.352Z,2.58
2023-01-26T09:53:07.360Z,2.60
2023-01-26T09:55:42.225Z,2.62
2023-01-26T09:58:36.424Z,2.73
2023-01-26T10:01:17.626Z,2.84
2023-01-26T10:04:03.154Z,2.89
2023-01-26T10:06:36.829Z,2.89
2023-01-26T10:09:49.619Z,2.88
2023-01-26T10:12:34.689Z,2.86
2023-01-26T10:15:27.834Z,2.84
2023-01-26T10:18:02.915Z,2.81
2023-01-26T10:20:49.804Z,2.82
2023-01-26T10:23:34.330Z,2.84
2023-01-26T10:26:22.887Z,2.90
2023-01-26T10:28:53.636Z,2.97
2023-01-26T10:31:35.676Z,3.02
2023-01-26T10:34:08.443Z,3.02
2023-01-26T10:36:37.939Z,2.94
2023-01-26T10:39:15.642Z,2.94
2023-01-26T10:42:03.679Z,2.95
2023-01-26T10:44:39.597Z,2.95
2023-01-26T10:47:23.823Z,2.93
2023-01-26T10:50:24.252Z,2.97
2023-01-26T10:53:32.623Z,3.05
2023-01-26T10:56:20.670Z,3.01
2023-01-26T10:59:02.173Z,3.04
2023-01-26T11:01:52.632Z,3.04
2023-01-26T11:04:23.537Z,3.02
2023-01-26T11:06:58.123Z,3.03
2023-01-26T11:09:31.962Z,2.99
2023-01-26T11:12:06.098Z,3.01
2023-01-26T11:14:38.131Z,2.97
2023-01-26T11:17:24.012Z,3.02
2023-01-26T11:20:42.200Z,3.06
2023-01-26T11:23:58.940Z,3.07
2023-01-26T11:27:22.953Z,3.05
2023-01-26T11:30:04.186Z,3.16
2023-01-26T11:33:00.430Z,3.27
2023-01-26T11:36:13.979Z,3.33
2023-01-26T11:39:21.147Z,3.40
2023-01-26T11:42:07.587Z,3.43
2023-01-26T11:45:22.229Z,3.49
2023-01-26T11:48:25.179Z,3.49
2023-01-26T11:51:05.657Z,3.47
2023-01-26T11:54:50.946Z,3.43
2023-01-26T11:57:37.933Z,3.39
2023-01-26T12:00:34.375Z,3.46
2023-01-26T12:03:13.310Z,3.48
2023-01-26T12:05:52.677Z,3.48
2023-01-26T12:08:44.102Z,3.56
2023-01-26T12:11:49.037Z,3.63
2023-01-26T12:14:41.034Z,3.61
2023-01-26T12:17:32.088Z,3.50
2023-01-26T12:20:36.359Z,3.35
2023-01-26T12:23:56.253Z,3.22
2023-01-26T12:26:39.273Z,3.07
2023-01-26T12:29:33.585Z,3.08
2023-01-26T12:32:20.533Z,3.16
2023-01-26T12:34:54.489Z,3.18
2023-01-26T12:37:38.290Z,3.20
2023-01-26T12:40:35.102Z,3.24
2023-01-26T12:43:31.872Z,3.27
2023-01-26T12:46:04.615Z,3.22
2023-01-26T12:48:47.207Z,3.19
2023-01-26T12:51:44.991Z,3.20
2023-01-26T12:54:40.661Z,3.20
2023-01-26T12:57:22.151Z,3.12
2023-01-26T12:59:52.611Z,3.06
2023-01-26T13:02:36.329Z,3.04
2023-01-26T13:05:34.019Z,3.06
2023-01-26T13:08:34.673Z,3.10
2023-01-26T13:11:09.361Z,3.14
2023-01-26T13:13:57.383Z,3.19
2023-01-26T13:16:47.270Z,3.22
2023-01-26T13:19:43.940Z,3.20
2023-01-26T13:22:22.738Z,3.09
2023-01-26T13:25:32.387Z,2.99
2023-01-26T13:28:04.298Z,2.82
2023-01-26T13:30:44.236Z,2.74
2023-01-26T13:33:25.944Z,2.67
2023-01-26T13:35:56.260Z,2.63
2023-01-26T13:38:40.544Z,2.60
2023-01-26T13:41:21.297Z,2.59
2023-01-26T13:44:05.014Z,2.57
2023-01-26T13:46:57.182Z,2.56
2023-01-26T13:49:49.706Z,2.54
2023-01-26T13:52:27.139Z,2.55
2023-01-26T13:54:58.355Z,2.54
2023-01-26T13:57:31.911Z,2.51
2023-01-26T14:00:01.846Z,2.49
2023-01-26T14:02:38.979Z,2.48
2023-01-26T14:05:24.814Z,2.45
2023-01-26T14:07:58.425Z,2.40
2023-01-26T14:10:28.840Z,2.42
2023-01-26T14:13:02.906Z,2.47
2023-01-26T14:15:38.591Z,2.49
2023-01-26T14:18:22.850Z,2.51
2023-01-26T14:21:01.011Z,2.50
2023-01-26T14:23:37.422Z,2.49
2023-01-26T14:26:22.078Z,2.51
2023-01-26T14:28:51.896Z,2.55
2023-01-26T14:31:26.734Z,2.55
2023-01-26T14:33:59.590Z,2.56
2023-01-26T14:36:42.069Z,2.55
2023-01-26T14:39:21.111Z,2.50
2023-01-26T14:41:50.719Z,2.39
2023-01-26T14:44:20.208Z,2.36
2023-01-26T14:47:06.634Z,2.34
2023-01-26T14:50:12.373Z,2.33
2023-01-26T14:52:46.932Z,2.39
2023-01-26T14:55:28.481Z,2.46
2023-01-26T14:58:01.598Z,2.52
2023-01-26T15:00:37.283Z,2.55
2023-01-26T15:03:58.292Z,2.57
2023-01-26T15:06:37.600Z,2.59
2023-01-26T15:09:29.467Z,2.61
2023-01-26T15:12:19.086Z,2.62
2023-01-26T15:14:55.966Z,2.60
2023-01-26T15:17:42.701Z,2.57
2023-01-26T15:20:15.291Z,2.57
2023-01-26T15:22:53.305Z,2.58
2023-01-26T15:25:32.025Z,2.57
2023-01-26T15:28:02.435Z,2.55
2023-01-26T15:30:40.197Z,2.55
2023-01-26T15:33:41.406Z,2.55
2023-01-26T15:36:51.212Z,2.54
2023-01-26T15:39:22.211Z,2.48
2023-01-26T15:42:14.264Z,2.44
2023-01-26T15:44:44.071Z,2.45
2023-01-26T15:47:15.547Z,2.51
2023-01-26T15:49:45.916Z,2.54
2023-01-26T15:52:26.085Z,2.56
2023-01-26T15:55:02.261Z,2.58
2023-01-26T15:57:32.233Z,2.60
2023-01-26T16:00:02.580Z,2.59
2023-01-26T16:02:36.737Z,2.58
2023-01-26T16:05:21.246Z,2.53
2023-01-26T16:08:20.685Z,2.42
2023-01-26T16:11:29.995Z,2.39
2023-01-26T16:14:15.623Z,2.43
2023-01-26T16:16:53.728Z,2.49
2023-01-26T16:19:36.856Z,2.53
2023-01-26T16:22:18.356Z,2.55
2023-01-26T16:24:54.544Z,2.55
2023-01-26T16:27:25.560Z,2.59
2023-01-26T16:29:55.611Z,2.48
2023-01-26T16:32:32.284Z,2.40
2023-01-26T16:35:21.279Z,2.35
2023-01-26T16:38:01.043Z,2.33
2023-01-26T16:40:34.373Z,2.28
2023-01-26T16:43:18.501Z,2.23
2023-01-26T16:45:52.237Z,2.22
2023-01-26T16:48:35.037Z,2.25
2023-01-26T16:51:26.059Z,2.27
2023-01-26T16:53:57.635Z,2.27
2023-01-26T16:56:35.743Z,2.29
2023-01-26T16:59:13.196Z,2.29
2023-01-26T17:01:43.457Z,2.28
2023-01-26T17:04:13.621Z,2.28
2023-01-26T17:06:48.036Z,2.23
2023-01-26T17:09:39.029Z,2.24
2023-01-26T17:12:14.080Z,2.25
2023-01-26T17:14:52.824Z,2.27
2023-01-26T17:17:34.158Z,2.31
2023-01-26T17:20:18.843Z,2.31
2023-01-26T17:22:50.787Z,2.19
2023-01-26T17:25:20.876Z,2.14
2023-01-26T17:27:56.470Z,2.14
2023-01-26T17:30:38.571Z,2.11
2023-01-26T17:33:10.371Z,2.12
2023-01-26T17:35:43.717Z,2.15
2023-01-26T17:38:25.612Z,2.14
2023-01-26T17:40:59.662Z,2.13
2023-01-26T17:43:44.356Z,2.13
2023-01-26T17:46:47.803Z,2.14
2023-01-26T17:49:40.501Z,2.15
2023-01-26T17:52:15.824Z,2.16
2023-01-26T17:54:53.762Z,2.06
2023-01-26T17:57:24.322Z,2.04
2023-01-26T17:59:55.201Z,2.00
2023-01-26T18:02:29.286Z,2.00
2023-01-26T18:05:18.855Z,2.01
2023-01-26T18:07:52.408Z,2.03
2023-01-26T18:10:35.899Z,2.08
2023-01-26T18:13:17.633Z,2.14
2023-01-26T18:16:14.748Z,2.17
2023-01-26T18:19:36.555Z,2.21
2023-01-26T18:22:22.456Z,2.20
2023-01-26T18:28:57.685Z,2.21
2023-01-26T18:31:43.565Z,2.23
2023-01-26T18:34:23.593Z,2.23
2023-01-26T18:37:02.070Z,2.24
2023-01-26T18:39:40.396Z,2.29
2023-01-26T18:42:10.505Z,2.34
2023-01-26T18:44:52.062Z,2.40
2023-01-26T18:47:31.778Z,2.43
2023-01-26T18:50:04.465Z,2.47
2023-01-26T18:52:35.054Z,2.49
2023-01-26T18:55:14.867Z,2.50
2023-01-26T18:57:55.542Z,2.49
2023-01-26T19:00:41.915Z,2.46
2023-01-26T19:03:35.868Z,2.45
2023-01-26T19:06:16.439Z,2.43
2023-01-26T19:09:04.786Z,2.42
2023-01-26T19:11:47.481Z,2.40
2023-01-26T19:14:19.994Z,2.39
2023-01-26T19:16:55.236Z,2.40
2023-01-26T19:19:27.042Z,2.43
2023-01-26T19:21:56.991Z,2.44
2023-01-26T19:24:37.295Z,2.44
2023-01-26T19:27:10.193Z,2.38
2023-01-26T19:30:14.311Z,2.40
2023-01-26T19:33:15.091Z,2.42
2023-01-26T19:35:50.419Z,2.42
2023-01-26T19:38:25.124Z,2.37
2023-01-26T19:40:54.776Z,2.33
2023-01-26T19:43:50.216Z,2.27
2023-01-26T19:46:47.244Z,2.19
2023-01-26T19:49:31.104Z,2.13
2023-01-26T19:52:32.822Z,2.07
2023-01-26T19:55:08.296Z,2.05
2023-01-26T19:57:45.218Z,2.05
2023-01-26T20:00:22.976Z,2.07
2023-01-26T20:03:02.969Z,2.11
2023-01-26T20:08:45.484Z,2.13
2023-01-26T20:11:23.601Z,2.14
2023-01-26T20:14:13.750Z,2.06
2023-01-26T20:16:47.715Z,2.11
2023-01-26T20:19:28.169Z,2.19
2023-01-26T20:22:02.601Z,2.26
2023-01-26T20:24:34.666Z,2.31
2023-01-26T20:27:13.573Z,2.37
2023-01-26T20:29:53.212Z,2.41
2023-01-26T20:32:27.793Z,2.45
2023-01-26T20:35:11.839Z,2.48
2023-01-26T20:37:44.152Z,2.49
2023-01-26T20:40:22.098Z,2.48
2023-01-26T20:42:57.278Z,2.47
2023-01-26T20:45:29.919Z,2.44
2023-01-26T20:48:01.256Z,2.36
2023-01-26T20:50:41.538Z,2.30
2023-01-26T20:53:22.591Z,2.26
2023-01-26T20:56:00.824Z,2.24
2023-01-26T20:58:30.816Z,2.23
2023-01-26T21:01:21.013Z,2.23
2023-01-26T21:03:53.973Z,2.19
2023-01-26T21:06:29.813Z,2.16
2023-01-26T21:09:01.213Z,2.15
2023-01-26T21:11:35.115Z,2.13
2023-01-26T21:14:12.185Z,2.08
2023-01-26T21:16:45.153Z,2.02
2023-01-26T21:19:18.240Z,1.97
2023-01-26T21:21:53.300Z,1.92
2023-01-26T21:24:59.183Z,1.85
2023-01-26T21:27:40.911Z,1.80
2023-01-26T21:30:31.758Z,1.77
2023-01-26T21:33:05.315Z,1.75
2023-01-26T21:35:38.611Z,1.72
2023-01-26T21:38:13.848Z,1.71
2023-01-26T21:40:51.573Z,1.72
2023-01-26T21:43:25.563Z,1.74
2023-01-26T21:46:02.481Z,1.76
2023-01-26T21:48:39.782Z,1.77
2023-01-26T21:51:30.838Z,1.78
2023-01-26T21:54:04.103Z,1.79
2023-01-26T21:56:43.403Z,1.83
2023-01-26T21:59:21.919Z,1.84
2023-01-26T22:01:57.677Z,1.87
2023-01-26T22:04:31.188Z,1.94
2023-01-26T22:07:01.283Z,2.00
2023-01-26T22:09:39.089Z,2.03
2023-01-26T22:12:30.981Z,2.05
2023-01-26T22:15:03.551Z,2.08
2023-01-26T22:17:38.611Z,2.10
2023-01-26T22:20:19.996Z,2.11
2023-01-26T22:23:00.160Z,2.13
2023-01-26T22:25:33.921Z,2.15
2023-01-26T22:28:09.333Z,2.18
2023-01-26T22:30:45.425Z,2.19
2023-01-26T22:33:18.513Z,2.23
2023-01-26T22:35:50.238Z,2.25
2023-01-26T22:38:24.069Z,2.26
2023-01-26T22:40:58.131Z,2.28
2023-01-26T22:43:29.008Z,2.29
2023-01-26T22:46:12.138Z,2.28
2023-01-26T22:48:42.533Z,2.25
2023-01-26T22:51:18.091Z,2.23
2023-01-26T22:53:57.092Z,2.20
2023-01-26T22:56:38.435Z,2.20
2023-01-26T22:59:18.735Z,2.20
2023-01-26T23:02:08.153Z,2.20
2023-01-26T23:04:43.601Z,2.18
2023-01-26T23:07:28.335Z,2.19
2023-01-26T23:10:12.084Z,2.20
2023-01-26T23:12:51.039Z,2.20
2023-01-26T23:15:37.911Z,2.21
2023-01-26T23:18:18.138Z,2.22
2023-01-26T23:20:54.499Z,2.22
2023-01-26T23:23:39.419Z,2.21
2023-01-26T23:26:13.219Z,2.23
2023-01-26T23:28:45.899Z,2.24
2023-01-26T23:31:19.382Z,2.25
2023-01-26T23:33:52.780Z,2.17
2023-01-26T23:36:28.136Z,2.18
2023-01-26T23:39:06.033Z,2.18
2023-01-26T23:41:41.047Z,2.19
2023-01-26T23:44:16.064Z,2.20
2023-01-26T23:46:51.003Z,2.21
2023-01-26T23:49:24.479Z,2.23
2023-01-26T23:52:02.430Z,2.22
2023-01-26T23:54:32.875Z,2.21
2023-01-26T23:57:09.127Z,2.22
2023-01-26T23:59:54.044Z,2.23
